Time;durP1;ratioP1;P1;durP2;ratioP2;P2;SDS_P1;SDS_P2;PMS_P1;PMS_P2;Temp;Humidity;BMP_temperature;BMP_pressure;BME280_temperature;BME280_humidity;BME280_pressure;Samples;Min_cycle;Max_cycle;Signal;HPM_P1;HPM_P2
2021/04/04 00:02:04;;;;;;;5.08;2.80;;;;;;;0.51;73.97;101603.34;1696490;82;412237;-74
2021/04/04 00:04:31;;;;;;;5.08;1.92;;;;;;;0.46;73.94;101599.34;1693057;83;21226;-74
2021/04/04 00:07:01;;;;;;;7.78;2.40;;;;;;;0.42;73.92;101595.34;1691760;83;21491;-74
2021/04/04 00:09:27;;;;;;;5.42;2.87;;;;;;;0.36;74.00;101604.86;1695175;83;21528;-73
2021/04/04 00:11:53;;;;;;;5.00;2.50;;;;;;;0.32;73.99;101599.17;1689287;83;21519;-73
2021/04/04 00:14:20;;;;;;;4.75;2.17;;;;;;;0.31;74.04;101597.44;1699018;83;21463;-73
2021/04/04 00:16:46;;;;;;;6.12;2.67;;;;;;;0.27;74.17;101597.72;1697147;83;21214;-73
2021/04/04 00:19:13;;;;;;;4.72;2.85;;;;;;;0.26;74.09;101597.66;1695980;83;21202;-73
2021/04/04 00:21:39;;;;;;;6.28;3.00;;;;;;;0.20;73.88;101598.27;1694393;82;21170;-73
2021/04/04 00:24:08;;;;;;;6.78;3.52;;;;;;;0.13;73.91;101591.59;1687233;83;21197;-74
2021/04/04 00:26:34;;;;;;;7.30;3.33;;;;;;;0.09;74.08;101592.27;1692079;83;21210;-73
2021/04/04 00:29:05;;;;;;;8.18;3.42;;;;;;;0.07;74.05;101593.47;1698194;83;26981;-73
2021/04/04 00:31:31;;;;;;;4.95;3.00;;;;;;;0.05;74.21;101600.16;1697160;83;21185;-73
2021/04/04 00:33:57;;;;;;;7.30;3.35;;;;;;;0.04;74.18;101597.16;1709880;83;21237;-73
2021/04/04 00:36:25;;;;;;;5.28;2.75;;;;;;;-0.03;74.05;101600.27;1710392;83;21225;-73
2021/04/04 00:38:51;;;;;;;5.03;2.42;;;;;;;-0.07;74.23;101590.38;1712434;83;21177;-73
2021/04/04 00:41:17;;;;;;;7.20;3.27;;;;;;;-0.09;74.20;101591.11;1725048;83;21450;-73
2021/04/04 00:43:44;;;;;;;8.48;3.20;;;;;;;-0.15;74.07;101596.80;1713185;83;26983;-73
2021/04/04 00:46:10;;;;;;;3.65;2.42;;;;;;;-0.15;74.34;101591.72;1701997;83;21172;-73
2021/04/04 00:48:36;;;;;;;2.58;1.90;;;;;;;-0.15;74.39;101591.72;1705360;83;21214;-73
2021/04/04 00:51:03;;;;;;;4.87;2.37;;;;;;;-0.16;74.40;101597.61;1657701;83;21205;-73
2021/04/04 00:53:29;;;;;;;;;;;;;;;-0.18;74.31;101591.98;1708588;83;21208;-73
2021/04/04 00:55:56;;;;;;;4.08;2.55;;;;;;;-0.23;74.30;101589.66;1663907;84;20203;-73
2021/04/04 00:58:22;;;;;;;8.08;2.60;;;;;;;-0.28;74.29;101587.31;1665219;84;21232;-73
2021/04/04 01:00:49;;;;;;;7.00;2.40;;;;;;;-0.28;74.44;101588.18;1650062;84;21251;-73
2021/04/04 01:03:17;;;;;;;4.72;2.55;;;;;;;-0.29;74.37;101590.66;1668407;84;21212;-73
2021/04/04 01:05:45;;;;;;;8.05;2.27;;;;;;;-0.32;74.39;101587.58;1666989;84;21968;-73
2021/04/04 01:08:11;;;;;;;6.62;3.02;;;;;;;-0.34;74.34;101589.19;1675881;84;21208;-74
2021/04/04 01:10:42;;;;;;;5.00;2.70;;;;;;;-0.36;74.42;101586.98;1669169;84;21232;-74
2021/04/04 01:13:44;;;;;;;6.45;2.58;;;;;;;-0.38;74.42;101590.72;1667348;84;21251;-74
2021/04/04 01:16:28;;;;;;;4.28;2.72;;;;;;;-0.39;74.41;101593.20;1670082;84;21219;-74
2021/04/04 01:19:11;;;;;;;3.55;2.42;;;;;;;-0.41;74.53;101584.64;1674213;84;21574;-73
2021/04/04 01:25:08;;;;;;;5.33;3.30;;;;;;;-0.46;74.31;101583.56;1691417;84;21209;-73
2021/04/04 01:27:55;;;;;;;7.03;3.75;;;;;;;-0.51;74.49;101583.36;1686396;84;21226;-73
2021/04/04 01:30:26;;;;;;;5.53;3.42;;;;;;;-0.53;74.44;101579.05;1697257;83;21521;-73
2021/04/04 01:32:53;;;;;;;4.42;3.37;;;;;;;-0.58;74.41;101573.77;1696809;84;21282;-73
2021/04/04 01:35:23;;;;;;;5.25;3.08;;;;;;;-0.62;74.38;101569.34;1683977;84;21175;-73
2021/04/04 01:37:53;;;;;;;5.00;2.95;;;;;;;-0.68;74.31;101576.69;1664481;85;21146;-73
2021/04/04 01:40:22;;;;;;;8.05;3.75;;;;;;;-0.70;74.46;101579.56;1673724;84;21160;-73
2021/04/04 01:43:02;;;;;;;10.25;4.37;;;;;;;-0.72;74.50;101572.27;1686413;83;21131;-73
2021/04/04 01:45:29;;;;;;;9.15;6.03;;;;;;;-0.75;74.49;101570.87;1676131;84;21143;-73
2021/04/04 01:47:56;;;;;;;14.00;6.62;;;;;;;-0.77;74.52;101567.39;1686168;84;21148;-73
2021/04/04 01:50:36;;;;;;;11.05;5.78;;;;;;;-0.79;74.50;101573.67;1678910;84;21134;-73
2021/04/04 01:53:03;;;;;;;;;;;;;;;-0.81;74.48;101569.32;1661062;84;21209;-73
2021/04/04 01:55:32;;;;;;;12.82;6.20;;;;;;;-0.83;74.68;101569.25;1690197;84;20271;-73
2021/04/04 01:57:59;;;;;;;11.18;6.37;;;;;;;-0.84;74.58;101570.05;1677621;84;20996;-73
2021/04/04 02:00:28;;;;;;;15.35;6.45;;;;;;;-0.86;74.63;101573.32;1688830;83;21033;-73
2021/04/04 02:02:54;;;;;;;14.40;6.62;;;;;;;-0.87;74.68;101566.10;1674195;83;21258;-73
2021/04/04 02:05:29;;;;;;;9.73;5.37;;;;;;;-0.90;74.57;101563.42;1667732;84;21178;-73
2021/04/04 02:07:56;;;;;;;10.35;5.37;;;;;;;-0.93;74.49;101568.36;1668366;85;21120;-73
2021/04/04 02:10:26;;;;;;;7.60;4.15;;;;;;;-0.97;74.48;101565.21;1659950;84;21107;-73
2021/04/04 02:12:56;;;;;;;10.80;5.33;;;;;;;-1.00;74.63;101569.75;1606490;85;21261;-73
2021/04/04 02:15:27;;;;;;;11.75;4.90;;;;;;;-1.04;74.47;101566.59;1657664;85;21237;-73
2021/04/04 02:17:54;;;;;;;8.50;4.55;;;;;;;-1.08;74.48;101575.30;1649228;85;21225;-73
2021/04/04 02:20:24;;;;;;;9.25;5.17;;;;;;;-1.08;74.71;101579.11;1669568;85;21212;-73
2021/04/04 02:22:52;;;;;;;8.30;4.90;;;;;;;-1.08;74.68;101568.95;1645860;84;21563;-73
2021/04/04 02:25:19;;;;;;;11.78;6.20;;;;;;;-1.12;74.57;101570.48;1670747;84;20949;-73
2021/04/04 02:27:47;;;;;;;10.20;6.12;;;;;;;-1.13;74.66;101569.14;1667226;84;22040;-73
2021/04/04 02:30:17;;;;;;;9.35;5.85;;;;;;;-1.16;74.58;101579.16;1666051;84;21088;-73
2021/04/04 02:32:48;;;;;;;10.53;6.17;;;;;;;-1.19;74.66;101573.53;1689320;84;21122;-73
2021/04/04 02:35:19;;;;;;;14.35;6.58;;;;;;;-1.21;74.65;101571.72;1688758;83;21698;-73
2021/04/04 02:37:47;;;;;;;10.70;6.20;;;;;;;-1.23;74.63;101569.11;1688842;83;21075;-73
2021/04/04 02:40:16;;;;;;;15.45;6.37;;;;;;;-1.26;74.57;101570.64;1690603;83;21063;-73
2021/04/04 02:42:45;;;;;;;14.98;7.17;;;;;;;-1.28;74.69;101573.10;1689508;83;21087;-73
2021/04/04 02:45:16;;;;;;;11.80;6.70;;;;;;;-1.29;74.65;101576.84;1689383;84;21201;-73
2021/04/04 02:48:02;;;;;;;14.18;7.10;;;;;;;-1.31;74.68;101572.09;1673252;84;21218;-73
2021/04/04 02:50:30;;;;;;;13.45;6.50;;;;;;;-1.32;74.73;101567.81;1702525;83;21059;-73
2021/04/04 02:52:59;;;;;;;15.03;6.85;;;;;;;-1.38;74.66;101565.45;1691760;83;21205;-73
2021/04/04 02:55:33;;;;;;;16.85;7.55;;;;;;;-1.39;74.75;101557.38;1689087;84;21079;-73
2021/04/04 02:58:06;;;;;;;13.43;6.45;;;;;;;-1.41;74.81;101558.09;1689108;84;21571;-73
2021/04/04 03:00:40;;;;;;;14.53;6.45;;;;;;;-1.43;74.79;101559.69;1701600;83;21193;-73
2021/04/04 03:03:09;;;;;;;15.60;6.25;;;;;;;-1.46;74.77;101564.22;1689144;84;21516;-73
2021/04/04 03:05:35;;;;;;;15.43;6.97;;;;;;;-1.46;74.79;101562.08;1697518;83;21632;-73
2021/04/04 03:08:09;;;;;;;21.27;8.23;;;;;;;-1.49;74.83;101562.80;1717488;83;21682;-73
2021/04/04 03:10:36;;;;;;;17.73;7.40;;;;;;;-1.50;74.79;101559.80;1716544;83;21190;-73
2021/04/04 03:13:03;;;;;;;21.17;8.60;;;;;;;-1.52;74.77;101557.98;1716861;83;22178;-73
2021/04/04 03:15:35;;;;;;;11.45;6.72;;;;;;;-1.55;74.77;101554.91;1702735;83;21523;-73
2021/04/04 03:18:01;;;;;;;12.80;6.55;;;;;;;-1.58;74.79;101549.72;1673487;84;21091;-73
2021/04/04 03:20:28;;;;;;;11.03;6.42;;;;;;;-1.58;74.78;101551.38;1698163;83;21226;-73
2021/04/04 03:22:57;;;;;;;10.18;6.37;;;;;;;-1.62;74.75;101556.70;1716532;83;21674;-73
2021/04/04 03:25:25;;;;;;;8.63;5.30;;;;;;;-1.64;74.77;101551.95;1675210;84;21643;-73
2021/04/04 03:27:51;;;;;;;11.83;5.60;;;;;;;-1.66;74.75;101548.48;1696400;82;21177;-73
2021/04/04 03:30:36;;;;;;;;;;;;;;;-1.69;74.85;101544.12;1672742;84;21000;-73
2021/04/04 03:33:07;;;;;;;14.68;5.45;;;;;;;-1.71;74.72;101553.72;1670285;85;20737;-73
2021/04/04 03:35:34;;;;;;;8.03;5.28;;;;;;;-1.77;74.79;101549.63;1694880;82;21412;-73
2021/04/04 03:38:03;;;;;;;10.60;5.35;;;;;;;-1.77;74.92;101545.82;1688792;83;21162;-73
2021/04/04 03:40:31;;;;;;;10.95;5.30;;;;;;;-1.81;74.78;101553.67;1698253;84;21798;-73
2021/04/04 03:43:00;;;;;;;13.05;5.95;;;;;;;-1.82;74.88;101553.59;1670224;84;21512;-73
2021/04/04 03:45:27;;;;;;;8.93;5.83;;;;;;;-1.85;74.90;101551.78;1670274;85;21386;-73
2021/04/04 03:47:54;;;;;;;13.08;5.80;;;;;;;-1.87;74.76;101556.30;1672501;82;21172;-73
2021/04/04 03:50:21;;;;;;;10.18;6.00;;;;;;;-1.90;74.85;101556.16;1693740;84;21515;-73
2021/04/04 03:52:49;;;;;;;8.93;5.08;;;;;;;-1.89;74.98;101555.36;1698085;84;21146;-73
2021/04/04 03:55:21;;;;;;;8.65;5.05;;;;;;;-1.90;74.86;101556.16;1684497;84;21693;-73
2021/04/04 03:57:53;;;;;;;10.88;5.80;;;;;;;-1.94;74.84;101558.94;1689718;84;21570;-73
2021/04/04 04:00:24;;;;;;;9.40;5.75;;;;;;;-1.95;74.92;101559.73;1685023;82;21238;-73
2021/04/04 04:02:52;;;;;;;9.70;5.65;;;;;;;-1.97;74.87;101568.92;1696931;82;21630;-73
2021/04/04 04:05:23;;;;;;;10.38;5.20;;;;;;;-2.00;74.92;101568.37;1695405;84;21566;-73
2021/04/04 04:07:51;;;;;;;10.30;5.72;;;;;;;-2.00;74.94;101562.43;1696827;84;21508;-73
2021/04/04 04:10:20;;;;;;;9.93;6.47;;;;;;;-2.01;75.02;101564.48;1695965;84;21602;-73
2021/04/04 04:12:49;;;;;;;12.98;6.53;;;;;;;-2.02;74.91;101566.16;1661918;85;21201;-73
2021/04/04 04:15:16;;;;;;;12.70;6.70;;;;;;;-2.04;74.79;101569.41;1690925;84;21205;-73
2021/04/04 04:17:45;;;;;;;10.95;5.62;;;;;;;-2.08;74.89;101570.08;1686710;84;21704;-73
2021/04/04 04:20:14;;;;;;;9.70;5.00;;;;;;;-2.07;75.04;101574.32;1690645;84;21410;-73
2021/04/04 04:22:41;;;;;;;8.70;4.85;;;;;;;-2.07;75.05;101573.05;1696962;82;21682;-73
2021/04/04 04:25:13;;;;;;;9.73;4.58;;;;;;;-2.08;75.04;101575.14;1690798;83;21713;-73
2021/04/04 04:27:42;;;;;;;9.43;4.25;;;;;;;-2.09;74.98;101572.14;1666033;84;21594;-73
2021/04/04 04:30:10;;;;;;;9.48;5.15;;;;;;;-2.11;75.05;101569.53;1683791;84;21213;-73
2021/04/04 04:32:40;;;;;;;8.00;5.35;;;;;;;-2.12;75.02;101569.05;1676098;84;21507;-73
2021/04/04 04:35:10;;;;;;;9.28;4.47;;;;;;;-2.10;75.01;101562.80;1689190;84;21746;-73
2021/04/04 04:37:39;;;;;;;9.88;5.40;;;;;;;-2.10;75.07;101564.94;1658248;85;21748;-73
2021/04/04 04:40:10;;;;;;;8.13;4.58;;;;;;;-2.09;75.04;101569.60;1668055;85;21551;-73
2021/04/04 04:42:42;;;;;;;12.98;5.20;;;;;;;-2.08;75.07;101566.28;1676588;84;21571;-73
2021/04/04 04:45:17;;;;;;;6.37;4.90;;;;;;;-2.07;74.94;101565.45;1694168;84;21945;-73
2021/04/04 04:47:45;;;;;;;11.30;4.83;;;;;;;-2.07;74.89;101566.72;1694321;84;21753;-74
2021/04/04 04:50:13;;;;;;;9.95;4.78;;;;;;;-2.09;75.01;101565.41;1669438;84;21797;-73
2021/04/04 04:52:42;;;;;;;7.03;4.35;;;;;;;-2.06;75.17;101563.39;1666054;86;21685;-73
2021/04/04 04:55:10;;;;;;;11.15;5.25;;;;;;;-2.00;75.31;101559.50;1666008;84;21209;-73
2021/04/04 04:57:37;;;;;;;8.75;5.03;;;;;;;-1.95;75.26;101548.72;1666509;84;21202;-73
2021/04/04 05:00:09;;;;;;;11.33;4.55;;;;;;;-1.91;75.20;101554.41;1665750;84;21441;-73
2021/04/04 05:02:37;;;;;;;11.33;3.20;;;;;;;-1.90;75.19;101557.42;1665816;86;21555;-73
2021/04/04 05:05:08;;;;;;;7.92;3.85;;;;;;;-1.85;75.34;101557.25;1678482;84;21452;-73
2021/04/04 05:07:37;;;;;;;10.28;3.92;;;;;;;-1.76;75.41;101561.11;1693676;84;21580;-73
2021/04/04 05:10:06;;;;;;;10.00;4.50;;;;;;;-1.62;75.53;101562.17;1692339;84;21627;-73
2021/04/04 05:12:38;;;;;;;5.92;4.10;;;;;;;-1.46;75.56;101558.28;1675047;84;21229;-73
2021/04/04 05:15:05;;;;;;;8.35;3.90;;;;;;;-1.35;75.46;101558.39;1693560;84;21604;-73
2021/04/04 05:17:36;;;;;;;7.67;3.50;;;;;;;-1.25;75.48;101564.36;1677088;83;21399;-73
2021/04/04 05:20:07;;;;;;;5.72;4.03;;;;;;;-1.15;75.39;101556.78;1675915;84;21222;-74
2021/04/04 05:22:36;;;;;;;6.92;3.52;;;;;;;-1.03;75.57;101566.20;1685807;83;21237;-73
2021/04/04 05:25:04;;;;;;;8.33;4.17;;;;;;;-0.78;75.84;101566.92;1670498;84;21007;-73
2021/04/04 05:27:30;;;;;;;9.40;4.12;;;;;;;-0.48;75.88;101563.57;1668686;84;21169;-73
2021/04/04 05:30:00;;;;;;;10.45;4.50;;;;;;;-0.21;75.73;101567.31;1667234;84;21171;-73
2021/04/04 05:32:27;;;;;;;7.80;4.15;;;;;;;-0.01;75.70;101561.40;1673930;84;20995;-73
2021/04/04 05:34:53;;;;;;;7.50;4.40;;;;;;;0.26;75.84;101560.38;1667471;84;21843;-73
2021/04/04 05:37:19;;;;;;;8.10;4.90;;;;;;;0.55;75.78;101560.64;1673706;84;21126;-73
2021/04/04 05:39:46;;;;;;;7.03;4.47;;;;;;;0.79;75.74;101564.55;1695502;84;20948;-73
2021/04/04 05:42:13;;;;;;;10.70;5.45;;;;;;;1.03;75.79;101560.41;1695395;84;21027;-73
2021/04/04 05:45:01;;;;;;;9.78;4.87;;;;;;;1.22;75.48;101558.98;1691458;84;20988;-73
2021/04/04 05:47:51;;;;;;;10.38;6.25;;;;;;;1.33;75.37;101558.09;1661185;84;21158;-73
2021/04/04 05:50:25;;;;;;;9.48;5.65;;;;;;;1.41;75.41;101559.25;1676883;84;21159;-73
2021/04/04 05:53:09;;;;;;;7.90;4.95;;;;;;;1.63;75.70;101555.34;1692353;84;21237;-73
2021/04/04 05:55:52;;;;;;;8.60;4.83;;;;;;;1.94;75.84;101553.86;1665856;84;21534;-73
2021/04/04 05:58:32;;;;;;;7.30;4.30;;;;;;;2.30;75.79;101549.95;1668336;84;21201;-73
2021/04/04 06:01:04;;;;;;;7.42;3.87;;;;;;;2.63;75.80;101541.61;1674551;83;21238;-73
2021/04/04 06:04:13;;;;;;;7.87;4.42;;;;;;;2.91;75.58;101543.31;1677084;84;21237;-73
2021/04/04 06:07:18;;;;;;;11.68;3.95;;;;;;;3.24;75.75;101539.58;1627481;85;21205;-73
2021/04/04 06:10:15;;;;;;;4.80;3.67;;;;;;;3.61;75.79;101539.78;1673341;83;21225;-73
2021/04/04 06:13:12;;;;;;;6.28;3.37;;;;;;;3.96;75.69;101535.98;1665447;85;21265;-74
2021/04/04 06:16:13;;;;;;;6.12;3.37;;;;;;;4.32;75.63;101542.41;1684146;84;21230;-74
2021/04/04 06:19:02;;;;;;;9.03;3.25;;;;;;;4.87;75.61;101537.25;1654384;85;21252;-73
2021/04/04 06:21:52;;;;;;;5.03;3.08;;;;;;;5.44;75.60;101538.86;1617696;87;21283;-73
2021/04/04 06:24:43;;;;;;;7.42;2.85;;;;;;;6.10;75.71;101540.95;1635420;85;21282;-73
2021/04/04 06:27:26;;;;;;;6.45;3.30;;;;;;;6.76;75.60;101540.23;1644674;87;21283;-73
2021/04/04 06:33:25;;;;;;;5.80;2.77;;;;;;;8.00;74.75;101532.22;1613256;87;21262;-73
2021/04/04 06:36:05;;;;;;;7.45;3.77;;;;;;;8.62;74.55;101537.03;1613458;88;21289;-74
2021/04/04 06:39:26;;;;;;;5.55;2.85;;;;;;;9.10;74.45;101543.30;1613389;88;21242;-73
2021/04/04 06:42:12;;;;;;;4.72;3.02;;;;;;;9.44;73.91;101537.83;1624631;87;21277;-74
2021/04/04 06:45:01;;;;;;;6.08;3.47;;;;;;;9.88;73.80;101535.34;1614836;87;21270;-74
2021/04/04 06:47:40;;;;;;;11.73;3.25;;;;;;;9.88;73.80;101535.34;1591819;88;21281;-73
2021/04/04 06:50:22;;;;;;;6.10;3.25;;;;;;;10.02;73.52;101537.52;1659220;85;21229;-74
2021/04/04 06:53:43;;;;;;;6.20;3.75;;;;;;;10.11;73.41;101533.64;1673546;85;21237;-74
2021/04/04 06:56:23;;;;;;;6.20;3.70;;;;;;;10.24;73.42;101535.41;1673726;85;21201;-74
2021/04/04 06:59:18;;;;;;;9.05;4.22;;;;;;;10.35;73.24;101523.78;1673898;85;21682;-73
2021/04/04 07:02:05;;;;;;;7.05;2.90;;;;;;;10.43;72.94;101527.62;1672945;84;21251;-73
2021/04/04 07:04:41;;;;;;;;;;;;;;;10.30;72.69;101531.96;1668244;85;21244;-73
2021/04/04 07:07:47;;;;;;;4.35;3.02;;;;;;;10.22;72.39;101533.25;1667162;84;20286;-73
2021/04/04 07:10:43;;;;;;;4.03;3.02;;;;;;;10.13;72.59;101531.92;1646365;87;21987;-73
2021/04/04 07:13:34;;;;;;;6.03;4.22;;;;;;;10.13;72.55;101531.06;1593624;89;21381;-74
2021/04/04 07:16:35;;;;;;;4.25;3.40;;;;;;;10.04;72.27;101529.76;1658778;85;21286;-73
2021/04/04 07:19:31;;;;;;;5.33;3.55;;;;;;;10.06;72.54;101533.20;1656251;85;21265;-73
2021/04/04 07:22:29;;;;;;;4.42;3.08;;;;;;;10.07;72.47;101533.64;1676020;83;21227;-73
2021/04/04 07:25:29;;;;;;;19.98;8.53;;;;;;;10.05;72.30;101527.61;1680784;84;21209;-73
2021/04/04 07:28:36;;;;;;;10.53;5.80;;;;;;;10.14;72.36;101526.33;1689514;83;21217;-73
2021/04/04 07:31:14;;;;;;;7.03;3.45;;;;;;;10.15;72.20;101525.46;1689773;84;21186;-73
2021/04/04 07:34:06;;;;;;;3.55;2.87;;;;;;;10.19;72.05;101522.91;1667859;83;22110;-73
2021/04/04 07:37:09;;;;;;;4.70;3.00;;;;;;;10.25;71.81;101523.34;1693700;84;21233;-73
2021/04/04 07:39:47;;;;;;;3.47;2.60;;;;;;;10.22;71.71;101522.05;1635114;84;21229;-73
2021/04/04 07:42:28;;;;;;;4.62;2.37;;;;;;;10.30;71.89;101519.03;1665546;84;21213;-73
2021/04/04 07:45:19;;;;;;;3.70;2.40;;;;;;;10.39;71.87;101528.08;1665081;85;21221;-73
2021/04/04 07:48:16;;;;;;;2.87;2.30;;;;;;;10.43;71.52;101525.03;1686733;83;21147;-73
2021/04/04 07:51:06;;;;;;;3.45;2.27;;;;;;;10.47;71.51;101521.58;1673283;83;21203;-73
2021/04/04 07:54:10;;;;;;;4.65;1.92;;;;;;;10.68;71.67;101529.75;1676580;83;21075;-73
2021/04/04 07:56:56;;;;;;;4.08;2.20;;;;;;;10.76;71.35;101524.13;1670352;84;21220;-73
2021/04/04 07:59:47;;;;;;;4.45;2.12;;;;;;;10.83;71.07;101521.52;1693833;83;21196;-73
2021/04/04 08:02:30;;;;;;;2.62;1.90;;;;;;;10.75;71.03;101524.98;1694616;83;21221;-73
2021/04/04 08:05:09;;;;;;;2.65;1.90;;;;;;;10.59;70.66;101521.14;1672737;84;21229;-73
2021/04/04 08:07:55;;;;;;;3.65;2.30;;;;;;;10.50;70.77;101521.58;1692907;84;21178;-73
2021/04/04 08:10:30;;;;;;;4.33;2.10;;;;;;;10.40;71.01;101519.43;1692798;84;21205;-73
2021/04/04 08:13:49;;;;;;;6.10;2.10;;;;;;;10.42;71.00;101510.38;1692698;84;21210;-74
2021/04/04 08:16:30;;;;;;;4.78;2.27;;;;;;;10.47;70.71;101508.66;1689932;84;21182;-73
2021/04/04 08:18:56;;;;;;;2.72;1.70;;;;;;;10.53;70.40;101507.35;1693954;84;21189;-73
2021/04/04 08:21:53;;;;;;;2.75;1.90;;;;;;;10.44;70.24;101511.24;1679735;83;21213;-73
2021/04/04 08:24:50;;;;;;;4.55;1.60;;;;;;;10.44;70.11;101511.24;1667107;86;21134;-73
2021/04/04 08:27:54;;;;;;;4.12;1.92;;;;;;;10.36;70.56;101505.25;1640256;86;21537;-73
2021/04/04 08:30:44;;;;;;;3.17;1.85;;;;;;;10.27;70.81;101502.23;1639279;87;21232;-73
2021/04/04 08:33:25;;;;;;;2.85;1.67;;;;;;;10.05;70.74;101498.75;1639502;86;21253;-73
2021/04/04 08:35:54;;;;;;;2.62;1.70;;;;;;;9.95;70.82;101493.15;1646218;86;21274;-73
2021/04/04 08:38:40;;;;;;;4.50;1.45;;;;;;;9.87;70.47;101497.05;1639210;87;21227;-73
2021/04/04 08:41:09;;;;;;;3.20;1.80;;;;;;;9.74;70.31;101497.03;1638882;87;21230;-73
2021/04/04 08:43:51;;;;;;;2.20;1.65;;;;;;;9.57;70.25;101497.85;1647224;86;21196;-73
2021/04/04 08:46:40;;;;;;;2.22;1.50;;;;;;;9.54;70.19;101492.68;1665345;85;21199;-73
2021/04/04 08:49:08;;;;;;;2.10;1.35;;;;;;;9.56;70.16;101491.39;1652761;86;21061;-73
2021/04/04 08:51:42;;;;;;;2.95;1.77;;;;;;;9.59;69.92;101482.36;1640581;85;21215;-73
2021/04/04 08:54:25;;;;;;;3.05;1.87;;;;;;;9.60;69.81;101484.09;1664456;86;21256;-73
2021/04/04 08:57:09;;;;;;;3.67;1.75;;;;;;;9.66;69.54;101480.23;1650362;86;21223;-73
2021/04/04 08:59:36;;;;;;;2.92;1.70;;;;;;;9.60;69.33;101477.64;1663549;86;21240;-73
2021/04/04 09:02:07;;;;;;;3.00;1.90;;;;;;;9.61;69.28;101478.93;1660113;86;21273;-73
2021/04/04 09:04:41;;;;;;;4.25;1.90;;;;;;;9.63;69.33;101476.34;1638647;86;21231;-73
2021/04/04 09:07:09;;;;;;;5.58;1.65;;;;;;;9.56;69.28;101470.74;1614706;87;21620;-73
2021/04/04 09:09:46;;;;;;;2.62;1.47;;;;;;;9.50;69.36;101467.72;1639548;87;21664;-73
2021/04/04 09:12:16;;;;;;;3.20;1.70;;;;;;;9.48;69.16;101465.56;1642352;86;21255;-73
2021/04/04 09:14:43;;;;;;;4.85;1.65;;;;;;;9.44;69.07;101461.67;1639657;86;21529;-73
2021/04/04 09:17:16;;;;;;;6.15;1.65;;;;;;;9.34;68.88;101465.13;1640271;86;21287;-74
2021/04/04 09:19:53;;;;;;;2.62;1.82;;;;;;;9.24;68.84;101460.36;1657532;84;21203;-74
2021/04/04 09:22:21;;;;;;;5.28;1.95;;;;;;;9.12;68.73;101462.47;1653714;84;21255;-73
2021/04/04 09:24:58;;;;;;;2.80;1.67;;;;;;;8.95;68.51;101457.67;1665805;84;21152;-73
2021/04/04 09:27:28;;;;;;;3.12;1.47;;;;;;;8.82;68.49;101455.92;1665582;86;21176;-73
2021/04/04 09:30:03;;;;;;;4.55;2.00;;;;;;;8.71;68.46;101458.88;1667217;85;20962;-74
2021/04/04 09:32:45;;;;;;;3.05;1.85;;;;;;;8.56;68.23;101446.34;1667097;86;21173;-74
2021/04/04 09:35:18;;;;;;;2.22;1.60;;;;;;;8.44;68.19;101452.70;1665209;86;21184;-73
2021/04/04 09:37:46;;;;;;;2.72;1.10;;;;;;;8.39;68.18;101447.95;1651791;86;21183;-73
2021/04/04 09:40:13;;;;;;;1.67;1.10;;;;;;;8.38;67.94;101447.94;1640057;86;21167;-74
2021/04/04 09:42:42;;;;;;;2.80;1.05;;;;;;;8.30;67.65;101444.02;1616312;87;21183;-73
2021/04/04 09:45:21;;;;;;;1.75;1.15;;;;;;;8.19;67.47;101442.66;1653956;86;21132;-73
2021/04/04 09:47:50;;;;;;;2.80;1.30;;;;;;;8.11;67.35;101439.59;1667241;86;21182;-73
2021/04/04 09:50:22;;;;;;;1.42;0.80;;;;;;;8.07;67.41;101433.98;1666251;86;21136;-73
2021/04/04 09:52:50;;;;;;;1.70;0.98;;;;;;;8.05;67.23;101421.09;1666930;86;21010;-74
2021/04/04 09:55:20;;;;;;;1.95;1.00;;;;;;;8.04;67.14;101426.23;1665594;86;21189;-74
2021/04/04 09:57:55;;;;;;;2.60;1.20;;;;;;;8.06;67.05;101426.67;1639090;86;21255;-73
2021/04/04 10:00:40;;;;;;;2.15;0.82;;;;;;;8.02;66.87;101415.91;1649344;84;21263;-73
2021/04/04 10:03:16;;;;;;;1.40;0.82;;;;;;;7.94;66.80;101410.70;1656114;86;21469;-73
2021/04/04 10:05:45;;;;;;;;;;;;;;;7.86;66.50;101413.64;1668426;86;21219;-73
2021/04/04 10:08:19;;;;;;;2.00;0.80;;;;;;;7.85;66.27;101408.48;1666052;84;20449;-73
2021/04/04 10:10:52;;;;;;;2.22;0.98;;;;;;;7.85;66.26;101404.19;1648189;84;21251;-73
2021/04/04 10:13:32;;;;;;;1.40;0.82;;;;;;;7.85;66.28;101402.91;1638415;86;21206;-73
2021/04/04 10:16:00;;;;;;;2.77;1.20;;;;;;;7.83;66.11;101396.02;1653148;86;21502;-73
2021/04/04 10:18:27;;;;;;;2.25;0.90;;;;;;;7.79;65.92;101400.31;1664454;86;21591;-73
2021/04/04 10:20:56;;;;;;;3.77;1.10;;;;;;;7.77;66.04;101400.73;1652414;86;21227;-73
2021/04/04 10:23:30;;;;;;;0.93;0.75;;;;;;;7.79;65.69;101397.74;1614382;87;21226;-73
2021/04/04 10:26:11;;;;;;;1.47;0.80;;;;;;;7.77;65.51;101389.56;1638158;84;21202;-74
2021/04/04 10:29:04;;;;;;;2.08;0.80;;;;;;;7.76;65.64;101382.27;1661796;83;21199;-73
2021/04/04 10:31:49;;;;;;;2.15;0.70;;;;;;;7.75;65.45;101379.26;1688854;84;21262;-73
2021/04/04 10:34:17;;;;;;;2.80;0.80;;;;;;;7.75;65.29;101376.69;1692775;83;21209;-73
2021/04/04 10:37:03;;;;;;;1.57;0.93;;;;;;;7.77;65.22;101362.11;1705655;83;21209;-73
2021/04/04 10:39:29;;;;;;;1.82;1.00;;;;;;;7.76;65.33;101356.95;1654797;84;21254;-73
2021/04/04 10:42:17;;;;;;;1.52;0.88;;;;;;;7.80;65.28;101354.84;1689045;84;21205;-73
2021/04/04 10:44:43;;;;;;;1.65;0.80;;;;;;;7.84;65.10;101352.69;1689659;83;21237;-73
2021/04/04 10:47:22;;;;;;;4.00;1.57;;;;;;;7.89;65.15;101352.30;1690245;83;21201;-73
2021/04/04 10:49:51;;;;;;;1.82;1.17;;;;;;;7.98;65.27;101350.64;1717896;83;21500;-73
2021/04/04 10:52:18;;;;;;;7.50;1.60;;;;;;;8.03;64.93;101348.52;1713500;83;21233;-73
2021/04/04 10:54:44;;;;;;;2.30;1.00;;;;;;;8.06;65.01;101349.83;1695937;83;21237;-73
2021/04/04 10:57:11;;;;;;;2.10;1.30;;;;;;;8.11;64.81;101346.86;1689107;84;21206;-73
2021/04/04 10:59:38;;;;;;;2.22;0.98;;;;;;;8.10;64.65;101333.12;1673242;84;21222;-73
2021/04/04 11:02:07;;;;;;;2.25;1.20;;;;;;;8.11;64.65;101333.98;1693884;83;21242;-73
2021/04/04 11:04:34;;;;;;;2.05;1.10;;;;;;;8.12;64.47;101326.27;1680304;84;21258;-73
2021/04/04 11:07:00;;;;;;;2.27;1.45;;;;;;;8.11;64.38;101327.54;1650454;84;21226;-74
2021/04/04 11:09:30;;;;;;;1.85;1.10;;;;;;;8.15;64.43;101331.86;1689145;83;21303;-73
2021/04/04 11:12:00;;;;;;;2.33;1.10;;;;;;;8.21;64.44;101321.16;1706311;83;21580;-73
2021/04/04 11:14:30;;;;;;;3.12;1.40;;;;;;;8.21;64.29;101320.30;1718021;83;21190;-73
2021/04/04 11:17:19;;;;;;;1.75;1.10;;;;;;;8.19;64.25;101317.72;1713729;83;21185;-73
2021/04/04 11:19:49;;;;;;;1.30;0.95;;;;;;;8.18;64.14;101314.70;1706017;83;21214;-73
2021/04/04 11:22:18;;;;;;;1.70;1.00;;;;;;;8.16;64.08;101315.13;1709732;83;21233;-73
2021/04/04 11:25:10;;;;;;;1.45;1.10;;;;;;;8.17;63.99;101301.81;1690830;83;21158;-73
2021/04/04 11:27:48;;;;;;;2.35;1.12;;;;;;;8.17;63.96;101301.81;1678172;84;21180;-73
2021/04/04 11:30:29;;;;;;;3.77;0.88;;;;;;;8.19;63.74;101301.39;1675499;85;21158;-73
2021/04/04 11:33:20;;;;;;;2.45;0.90;;;;;;;8.17;63.77;101287.64;1672775;84;21154;-73
2021/04/04 11:36:10;;;;;;;2.55;1.12;;;;;;;8.20;63.75;101283.37;1693910;82;20991;-73
2021/04/04 11:38:56;;;;;;;2.00;1.27;;;;;;;8.22;63.69;101280.38;1703671;82;21003;-73
2021/04/04 11:41:54;;;;;;;1.87;0.98;;;;;;;8.27;63.65;101276.10;1699790;84;21431;-73
2021/04/04 11:44:38;;;;;;;1.32;1.02;;;;;;;8.32;63.64;101269.64;1698844;84;20980;-73
2021/04/04 11:47:19;;;;;;;1.75;1.12;;;;;;;8.36;63.50;101271.41;1703623;82;21452;-73
2021/04/04 11:49:58;;;;;;;1.20;1.00;;;;;;;8.41;63.58;101263.27;1698304;84;21196;-73
2021/04/04 11:52:34;;;;;;;2.37;1.37;;;;;;;8.48;63.48;101260.28;1680310;84;21221;-73
2021/04/04 11:55:00;;;;;;;2.83;1.30;;;;;;;8.52;63.38;101254.28;1673998;85;21228;-73
2021/04/04 11:57:31;;;;;;;2.95;1.52;;;;;;;8.56;63.33;101241.41;1700734;82;21210;-73
2021/04/04 12:00:01;;;;;;;1.37;1.02;;;;;;;8.58;63.23;101236.26;1682007;82;21662;-74
2021/04/04 12:02:30;;;;;;;3.25;1.30;;;;;;;8.58;63.03;101224.23;1701361;82;21242;-74
2021/04/04 12:05:10;;;;;;;2.27;1.20;;;;;;;8.58;63.03;101222.94;1676141;82;21241;-73
2021/04/04 12:07:57;;;;;;;3.22;1.40;;;;;;;8.61;63.01;101224.23;1674298;85;21221;-73
2021/04/04 12:10:32;;;;;;;2.72;1.45;;;;;;;8.62;62.90;101211.78;1676648;84;22163;-73
2021/04/04 12:13:17;;;;;;;3.25;1.22;;;;;;;8.64;62.87;101216.94;1674501;84;21213;-73
2021/04/04 12:15:44;;;;;;;1.70;0.90;;;;;;;8.70;62.85;101209.64;1686883;84;21143;-73